MMMD/MID METAR and TAF weather

Enter ICAO airport designator
Station Type Date Time Source
MMMD METAR 2019/08/23 15:45 UTC NOAA

MMMD 231545Z 12014KT 7SM SCT300 31/23 A2997 RMK 8/008 HZY CU


Station Type Date Time Source
MMMD Decoded METAR 2019/08/23 15:45 UTC NOAA

Station name not available
Aug 23, 2019 - 11:45 AM EDT / 2019.08.23 1545 UTC
Wind: from the ESE (120 degrees) at 16 MPH (14 KT):0
Visibility: 7 mile(s):0
Sky conditions: partly cloudy
Temperature: 87 F (31 C)
Heat index: 93.9 F (34.4 C):1
Dew Point: 73 F (23 C)
Relative Humidity: 62%
Pressure (altimeter): 29.97 in. Hg (1014 hPa)
ob: MMMD 231545Z 12014KT 7SM SCT300 31/23 A2997 RMK 8/008 HZY CU
cycle: 16

Station Type Date Time Source
MMMD TAF 2019/08/23 12:43 UTC NOAA

TAF MMMD 231036Z 2312/2418 10008KT 6SM HZ SKC TX35/2321Z TN24/2312Z
TEMPO 2312/2315 2SM BR BKN005 OVC010
FM231800 13010KT P6SM SCT030
FM240300 13005KT 6SM HZ SKC
FM241800 06010KT P6SM SCT030

Example: see airport list